sensor_id;sensor_type;location;lat;lon;timestamp;temperature;humidity
21318;DHT22;10818;50.830;6.524;2023-05-07T00:03:08;14.80;99.90
21318;DHT22;10818;50.830;6.524;2023-05-07T00:08:08;14.70;99.90
21318;DHT22;10818;50.830;6.524;2023-05-07T00:13:09;14.60;99.90
21318;DHT22;10818;50.830;6.524;2023-05-07T00:18:09;14.50;99.90
21318;DHT22;10818;50.830;6.524;2023-05-07T00:23:09;14.50;99.90
21318;DHT22;10818;50.830;6.524;2023-05-07T00:28:10;14.60;99.90
21318;DHT22;10818;50.830;6.524;2023-05-07T00:33:10;14.60;99.90
21318;DHT22;10818;50.830;6.524;2023-05-07T00:38:11;14.60;99.90
21318;DHT22;10818;50.830;6.524;2023-05-07T00:43:11;14.60;99.90
21318;DHT22;10818;50.830;6.524;2023-05-07T00:48:12;14.70;99.90
21318;DHT22;10818;50.830;6.524;2023-05-07T00:53:13;14.70;99.90
21318;DHT22;10818;50.830;6.524;2023-05-07T00:58:14;14.70;99.90
21318;DHT22;10818;50.830;6.524;2023-05-07T01:03:14;14.60;99.90
21318;DHT22;10818;50.830;6.524;2023-05-07T01:08:15;14.70;99.90
21318;DHT22;10818;50.830;6.524;2023-05-07T01:13:15;14.60;99.90
21318;DHT22;10818;50.830;6.524;2023-05-07T01:18:16;14.60;99.90
21318;DHT22;10818;50.830;6.524;2023-05-07T01:23:16;14.60;99.90
21318;DHT22;10818;50.830;6.524;2023-05-07T01:28:18;14.60;99.90
21318;DHT22;10818;50.830;6.524;2023-05-07T01:33:19;14.60;99.90
21318;DHT22;10818;50.830;6.524;2023-05-07T01:38:21;14.70;99.90
21318;DHT22;10818;50.830;6.524;2023-05-07T01:43:22;14.60;99.90
21318;DHT22;10818;50.830;6.524;2023-05-07T01:48:23;14.60;99.90
21318;DHT22;10818;50.830;6.524;2023-05-07T01:53:26;14.50;99.90
21318;DHT22;10818;50.830;6.524;2023-05-07T01:58:27;14.50;99.90
21318;DHT22;10818;50.830;6.524;2023-05-07T02:03:27;14.40;99.90
21318;DHT22;10818;50.830;6.524;2023-05-07T02:08:28;14.40;99.90
21318;DHT22;10818;50.830;6.524;2023-05-07T02:13:29;14.40;99.90
21318;DHT22;10818;50.830;6.524;2023-05-07T02:18:30;14.30;99.90
21318;DHT22;10818;50.830;6.524;2023-05-07T02:23:30;14.20;99.90
21318;DHT22;10818;50.830;6.524;2023-05-07T02:28:31;14.30;99.90
21318;DHT22;10818;50.830;6.524;2023-05-07T02:33:31;14.40;99.90
21318;DHT22;10818;50.830;6.524;2023-05-07T02:38:32;14.30;99.90
21318;DHT22;10818;50.830;6.524;2023-05-07T02:43:32;14.20;99.90
21318;DHT22;10818;50.830;6.524;2023-05-07T02:48:33;14.30;99.90
21318;DHT22;10818;50.830;6.524;2023-05-07T02:53:34;14.30;99.90
21318;DHT22;10818;50.830;6.524;2023-05-07T02:58:34;14.30;99.90
21318;DHT22;10818;50.830;6.524;2023-05-07T03:03:35;14.30;99.90
21318;DHT22;10818;50.830;6.524;2023-05-07T03:08:35;14.20;99.90
21318;DHT22;10818;50.830;6.524;2023-05-07T03:13:36;14.30;99.90
21318;DHT22;10818;50.830;6.524;2023-05-07T03:18:37;14.20;99.90
21318;DHT22;10818;50.830;6.524;2023-05-07T03:23:37;14.30;99.90
21318;DHT22;10818;50.830;6.524;2023-05-07T03:28:38;14.20;99.90
21318;DHT22;10818;50.830;6.524;2023-05-07T03:33:47;14.10;99.90
21318;DHT22;10818;50.830;6.524;2023-05-07T03:38:49;14.20;99.90
21318;DHT22;10818;50.830;6.524;2023-05-07T03:43:50;14.20;99.90
21318;DHT22;10818;50.830;6.524;2023-05-07T03:48:50;14.10;99.90
21318;DHT22;10818;50.830;6.524;2023-05-07T03:53:51;14.20;99.90
21318;DHT22;10818;50.830;6.524;2023-05-07T03:58:54;14.20;99.90
21318;DHT22;10818;50.830;6.524;2023-05-07T04:03:55;14.20;99.90
21318;DHT22;10818;50.830;6.524;2023-05-07T04:08:55;14.20;99.90
21318;DHT22;10818;50.830;6.524;2023-05-07T04:13:56;14.30;99.90
21318;DHT22;10818;50.830;6.524;2023-05-07T04:18:56;14.20;99.90
21318;DHT22;10818;50.830;6.524;2023-05-07T04:23:57;14.20;99.90
21318;DHT22;10818;50.830;6.524;2023-05-07T04:28:57;14.20;99.90
21318;DHT22;10818;50.830;6.524;2023-05-07T04:33:59;14.20;99.90
21318;DHT22;10818;50.830;6.524;2023-05-07T04:39:00;14.40;99.90
21318;DHT22;10818;50.830;6.524;2023-05-07T04:44:00;14.50;99.90
21318;DHT22;10818;50.830;6.524;2023-05-07T04:49:01;14.40;99.90
21318;DHT22;10818;50.830;6.524;2023-05-07T04:54:01;14.50;99.90
21318;DHT22;10818;50.830;6.524;2023-05-07T04:59:02;14.70;99.90
21318;DHT22;10818;50.830;6.524;2023-05-07T05:04:02;14.80;99.90
21318;DHT22;10818;50.830;6.524;2023-05-07T05:09:03;14.60;99.90
21318;DHT22;10818;50.830;6.524;2023-05-07T05:14:05;14.70;99.90
21318;DHT22;10818;50.830;6.524;2023-05-07T05:19:05;14.90;99.90
21318;DHT22;10818;50.830;6.524;2023-05-07T05:24:06;15.10;99.90
21318;DHT22;10818;50.830;6.524;2023-05-07T05:29:06;15.40;99.90
21318;DHT22;10818;50.830;6.524;2023-05-07T05:34:08;15.60;99.90
21318;DHT22;10818;50.830;6.524;2023-05-07T05:39:08;16.10;99.90
21318;DHT22;10818;50.830;6.524;2023-05-07T05:44:08;16.10;99.90
21318;DHT22;10818;50.830;6.524;2023-05-07T05:49:09;16.90;99.90
21318;DHT22;10818;50.830;6.524;2023-05-07T05:54:09;17.50;99.90
21318;DHT22;10818;50.830;6.524;2023-05-07T05:59:10;17.50;99.90
21318;DHT22;10818;50.830;6.524;2023-05-07T06:04:10;17.50;99.90
21318;DHT22;10818;50.830;6.524;2023-05-07T06:09:11;17.60;99.90
21318;DHT22;10818;50.830;6.524;2023-05-07T06:14:11;17.60;99.90
21318;DHT22;10818;50.830;6.524;2023-05-07T06:19:12;18.20;99.90
21318;DHT22;10818;50.830;6.524;2023-05-07T06:24:12;18.40;99.90
21318;DHT22;10818;50.830;6.524;2023-05-07T06:29:13;18.20;99.90
21318;DHT22;10818;50.830;6.524;2023-05-07T06:34:13;18.30;99.90
21318;DHT22;10818;50.830;6.524;2023-05-07T06:39:17;18.30;99.90
21318;DHT22;10818;50.830;6.524;2023-05-07T06:44:17;18.40;99.90
21318;DHT22;10818;50.830;6.524;2023-05-07T06:49:17;18.50;99.90
21318;DHT22;10818;50.830;6.524;2023-05-07T06:54:18;18.90;99.90
21318;DHT22;10818;50.830;6.524;2023-05-07T06:59:18;19.50;99.90
21318;DHT22;10818;50.830;6.524;2023-05-07T07:04:19;19.70;99.90
21318;DHT22;10818;50.830;6.524;2023-05-07T07:09:20;20.10;99.90
21318;DHT22;10818;50.830;6.524;2023-05-07T07:14:20;21.80;99.90
21318;DHT22;10818;50.830;6.524;2023-05-07T07:19:21;22.80;99.90
21318;DHT22;10818;50.830;6.524;2023-05-07T07:24:21;21.70;99.90
21318;DHT22;10818;50.830;6.524;2023-05-07T07:29:22;22.10;99.90
21318;DHT22;10818;50.830;6.524;2023-05-07T07:34:22;21.90;99.90
21318;DHT22;10818;50.830;6.524;2023-05-07T07:39:23;21.80;99.90
21318;DHT22;10818;50.830;6.524;2023-05-07T07:44:23;22.40;99.90
21318;DHT22;10818;50.830;6.524;2023-05-07T07:49:23;22.80;99.90
21318;DHT22;10818;50.830;6.524;2023-05-07T07:54:24;23.10;99.90
21318;DHT22;10818;50.830;6.524;2023-05-07T07:59:24;23.50;99.90
21318;DHT22;10818;50.830;6.524;2023-05-07T08:04:25;24.20;99.90
21318;DHT22;10818;50.830;6.524;2023-05-07T08:09:26;23.40;99.90
21318;DHT22;10818;50.830;6.524;2023-05-07T08:14:26;23.30;99.90
21318;DHT22;10818;50.830;6.524;2023-05-07T08:19:28;23.40;99.90
21318;DHT22;10818;50.830;6.524;2023-05-07T08:24:28;23.60;99.90
21318;DHT22;10818;50.830;6.524;2023-05-07T08:29:29;26.30;99.90
21318;DHT22;10818;50.830;6.524;2023-05-07T08:34:29;26.30;99.90
21318;DHT22;10818;50.830;6.524;2023-05-07T08:39:30;24.60;99.90
21318;DHT22;10818;50.830;6.524;2023-05-07T08:44:34;24.40;99.90
21318;DHT22;10818;50.830;6.524;2023-05-07T08:49:37;24.80;99.90
21318;DHT22;10818;50.830;6.524;2023-05-07T08:54:38;24.00;99.90
21318;DHT22;10818;50.830;6.524;2023-05-07T08:59:39;24.60;99.90
21318;DHT22;10818;50.830;6.524;2023-05-07T09:04:40;24.10;99.90
21318;DHT22;10818;50.830;6.524;2023-05-07T09:09:40;23.80;99.90
21318;DHT22;10818;50.830;6.524;2023-05-07T09:14:41;24.80;99.90
21318;DHT22;10818;50.830;6.524;2023-05-07T09:19:42;25.60;99.90
21318;DHT22;10818;50.830;6.524;2023-05-07T09:24:49;25.30;99.90
21318;DHT22;10818;50.830;6.524;2023-05-07T09:29:50;25.20;99.90
21318;DHT22;10818;50.830;6.524;2023-05-07T09:34:51;25.20;99.90
21318;DHT22;10818;50.830;6.524;2023-05-07T09:39:51;24.70;99.90
21318;DHT22;10818;50.830;6.524;2023-05-07T09:44:52;25.20;99.90
21318;DHT22;10818;50.830;6.524;2023-05-07T09:49:56;25.00;99.90
21318;DHT22;10818;50.830;6.524;2023-05-07T09:55:00;24.90;99.90
21318;DHT22;10818;50.830;6.524;2023-05-07T10:00:01;25.50;99.90
21318;DHT22;10818;50.830;6.524;2023-05-07T10:05:04;25.40;99.90
21318;DHT22;10818;50.830;6.524;2023-05-07T10:10:05;26.00;99.90
21318;DHT22;10818;50.830;6.524;2023-05-07T10:15:06;26.10;99.90
21318;DHT22;10818;50.830;6.524;2023-05-07T10:20:07;26.20;99.90
21318;DHT22;10818;50.830;6.524;2023-05-07T10:25:18;26.80;99.90
21318;DHT22;10818;50.830;6.524;2023-05-07T10:30:30;25.90;99.90
21318;DHT22;10818;50.830;6.524;2023-05-07T10:35:40;26.30;99.90
21318;DHT22;10818;50.830;6.524;2023-05-07T10:40:41;26.40;99.90
21318;DHT22;10818;50.830;6.524;2023-05-07T10:45:42;26.30;99.90
21318;DHT22;10818;50.830;6.524;2023-05-07T10:50:43;25.30;99.90
21318;DHT22;10818;50.830;6.524;2023-05-07T10:55:47;25.10;99.90
21318;DHT22;10818;50.830;6.524;2023-05-07T11:00:48;24.60;99.90
21318;DHT22;10818;50.830;6.524;2023-05-07T11:06:08;23.70;99.90
21318;DHT22;10818;50.830;6.524;2023-05-07T11:11:08;23.60;99.90
21318;DHT22;10818;50.830;6.524;2023-05-07T11:16:22;23.20;99.90
21318;DHT22;10818;50.830;6.524;2023-05-07T11:21:36;23.10;99.90
21318;DHT22;10818;50.830;6.524;2023-05-07T11:26:49;22.70;99.90
21318;DHT22;10818;50.830;6.524;2023-05-07T11:31:50;22.60;99.90
21318;DHT22;10818;50.830;6.524;2023-05-07T11:36:51;22.50;99.90
21318;DHT22;10818;50.830;6.524;2023-05-07T11:41:52;22.60;99.90
21318;DHT22;10818;50.830;6.524;2023-05-07T11:46:52;22.70;99.90
21318;DHT22;10818;50.830;6.524;2023-05-07T11:51:53;22.50;99.90
21318;DHT22;10818;50.830;6.524;2023-05-07T11:56:53;22.70;99.90
21318;DHT22;10818;50.830;6.524;2023-05-07T12:01:56;23.00;99.90
21318;DHT22;10818;50.830;6.524;2023-05-07T12:06:57;23.10;99.90
21318;DHT22;10818;50.830;6.524;2023-05-07T12:12:02;22.90;99.90
21318;DHT22;10818;50.830;6.524;2023-05-07T12:17:03;22.80;99.90
21318;DHT22;10818;50.830;6.524;2023-05-07T12:22:03;22.50;99.90
21318;DHT22;10818;50.830;6.524;2023-05-07T12:27:04;21.20;99.90
21318;DHT22;10818;50.830;6.524;2023-05-07T12:32:06;20.70;99.90
21318;DHT22;10818;50.830;6.524;2023-05-07T12:37:06;20.50;99.90
21318;DHT22;10818;50.830;6.524;2023-05-07T12:42:07;20.50;99.90
21318;DHT22;10818;50.830;6.524;2023-05-07T12:47:07;20.30;99.90
21318;DHT22;10818;50.830;6.524;2023-05-07T12:52:07;20.30;99.90
21318;DHT22;10818;50.830;6.524;2023-05-07T12:57:09;20.30;99.90
21318;DHT22;10818;50.830;6.524;2023-05-07T13:02:10;20.20;99.90
21318;DHT22;10818;50.830;6.524;2023-05-07T13:07:10;20.00;99.90
21318;DHT22;10818;50.830;6.524;2023-05-07T13:12:11;19.90;99.90
21318;DHT22;10818;50.830;6.524;2023-05-07T13:17:11;20.00;99.90
21318;DHT22;10818;50.830;6.524;2023-05-07T13:22:12;20.00;99.90
21318;DHT22;10818;50.830;6.524;2023-05-07T13:27:13;19.90;99.90
21318;DHT22;10818;50.830;6.524;2023-05-07T13:32:13;19.80;99.90
21318;DHT22;10818;50.830;6.524;2023-05-07T13:37:13;20.00;99.90
21318;DHT22;10818;50.830;6.524;2023-05-07T13:42:14;20.10;99.90
21318;DHT22;10818;50.830;6.524;2023-05-07T13:47:14;20.10;99.90
21318;DHT22;10818;50.830;6.524;2023-05-07T13:52:15;20.20;99.90
21318;DHT22;10818;50.830;6.524;2023-05-07T13:57:16;20.20;99.90
21318;DHT22;10818;50.830;6.524;2023-05-07T14:02:16;20.20;99.90
21318;DHT22;10818;50.830;6.524;2023-05-07T14:07:17;20.30;99.90
21318;DHT22;10818;50.830;6.524;2023-05-07T14:12:17;20.50;99.90
21318;DHT22;10818;50.830;6.524;2023-05-07T14:17:18;20.70;99.90
21318;DHT22;10818;50.830;6.524;2023-05-07T14:22:19;21.20;99.90
21318;DHT22;10818;50.830;6.524;2023-05-07T14:27:19;21.70;99.90
21318;DHT22;10818;50.830;6.524;2023-05-07T14:32:21;21.90;99.90
21318;DHT22;10818;50.830;6.524;2023-05-07T14:37:22;21.50;99.90
21318;DHT22;10818;50.830;6.524;2023-05-07T14:42:23;21.70;99.90
21318;DHT22;10818;50.830;6.524;2023-05-07T14:47:23;21.80;99.90
21318;DHT22;10818;50.830;6.524;2023-05-07T14:52:24;21.60;99.90
21318;DHT22;10818;50.830;6.524;2023-05-07T14:57:24;21.60;99.90
21318;DHT22;10818;50.830;6.524;2023-05-07T15:02:25;21.70;99.90
21318;DHT22;10818;50.830;6.524;2023-05-07T15:07:26;21.80;99.90
21318;DHT22;10818;50.830;6.524;2023-05-07T15:12:26;21.80;99.90
21318;DHT22;10818;50.830;6.524;2023-05-07T15:17:26;21.70;99.90
21318;DHT22;10818;50.830;6.524;2023-05-07T15:22:27;21.70;99.90
21318;DHT22;10818;50.830;6.524;2023-05-07T15:27:27;21.80;99.90
21318;DHT22;10818;50.830;6.524;2023-05-07T15:32:28;21.90;99.90
21318;DHT22;10818;50.830;6.524;2023-05-07T15:37:29;22.00;99.90
21318;DHT22;10818;50.830;6.524;2023-05-07T15:42:30;21.90;99.90
21318;DHT22;10818;50.830;6.524;2023-05-07T15:47:31;21.80;99.90
21318;DHT22;10818;50.830;6.524;2023-05-07T15:52:32;21.80;99.90
21318;DHT22;10818;50.830;6.524;2023-05-07T15:57:33;21.70;99.90
21318;DHT22;10818;50.830;6.524;2023-05-07T16:02:33;21.40;99.90
21318;DHT22;10818;50.830;6.524;2023-05-07T16:07:34;21.30;99.90
21318;DHT22;10818;50.830;6.524;2023-05-07T16:12:35;21.30;99.90
21318;DHT22;10818;50.830;6.524;2023-05-07T16:17:35;21.20;99.90
21318;DHT22;10818;50.830;6.524;2023-05-07T16:22:36;21.10;99.90
21318;DHT22;10818;50.830;6.524;2023-05-07T16:27:36;21.00;99.90
21318;DHT22;10818;50.830;6.524;2023-05-07T16:32:37;20.70;99.90
21318;DHT22;10818;50.830;6.524;2023-05-07T16:37:40;20.40;99.90
21318;DHT22;10818;50.830;6.524;2023-05-07T16:42:41;20.20;99.90
21318;DHT22;10818;50.830;6.524;2023-05-07T16:47:41;20.10;99.90
21318;DHT22;10818;50.830;6.524;2023-05-07T16:52:42;19.80;99.90
21318;DHT22;10818;50.830;6.524;2023-05-07T16:57:42;19.80;99.90
21318;DHT22;10818;50.830;6.524;2023-05-07T17:02:43;19.80;99.90
21318;DHT22;10818;50.830;6.524;2023-05-07T17:07:44;19.60;99.90
21318;DHT22;10818;50.830;6.524;2023-05-07T17:12:45;19.40;99.90
21318;DHT22;10818;50.830;6.524;2023-05-07T17:17:45;19.30;99.90
21318;DHT22;10818;50.830;6.524;2023-05-07T17:22:46;19.20;99.90
21318;DHT22;10818;50.830;6.524;2023-05-07T17:27:46;19.10;99.90
21318;DHT22;10818;50.830;6.524;2023-05-07T17:32:47;19.10;99.90
21318;DHT22;10818;50.830;6.524;2023-05-07T17:37:47;19.00;99.90
21318;DHT22;10818;50.830;6.524;2023-05-07T17:42:51;19.00;99.90
21318;DHT22;10818;50.830;6.524;2023-05-07T17:47:52;19.00;99.90
21318;DHT22;10818;50.830;6.524;2023-05-07T17:52:53;18.90;99.90
21318;DHT22;10818;50.830;6.524;2023-05-07T17:57:53;18.90;99.90
21318;DHT22;10818;50.830;6.524;2023-05-07T18:02:53;18.90;99.90
21318;DHT22;10818;50.830;6.524;2023-05-07T18:07:54;18.90;99.90
21318;DHT22;10818;50.830;6.524;2023-05-07T18:12:55;18.80;99.90
21318;DHT22;10818;50.830;6.524;2023-05-07T18:17:55;18.70;99.90
21318;DHT22;10818;50.830;6.524;2023-05-07T18:22:56;18.70;99.90
21318;DHT22;10818;50.830;6.524;2023-05-07T18:27:56;18.60;99.90
21318;DHT22;10818;50.830;6.524;2023-05-07T18:32:57;18.60;99.90
21318;DHT22;10818;50.830;6.524;2023-05-07T18:37:57;18.50;99.90
21318;DHT22;10818;50.830;6.524;2023-05-07T18:42:58;18.50;99.90
21318;DHT22;10818;50.830;6.524;2023-05-07T18:47:59;18.40;99.90
21318;DHT22;10818;50.830;6.524;2023-05-07T18:53:00;18.30;99.90
21318;DHT22;10818;50.830;6.524;2023-05-07T18:58:01;18.30;99.90
21318;DHT22;10818;50.830;6.524;2023-05-07T19:03:01;18.20;99.90
21318;DHT22;10818;50.830;6.524;2023-05-07T19:08:02;18.10;99.90
21318;DHT22;10818;50.830;6.524;2023-05-07T19:13:02;18.10;99.90
21318;DHT22;10818;50.830;6.524;2023-05-07T19:18:03;18.10;99.90
21318;DHT22;10818;50.830;6.524;2023-05-07T19:23:06;18.00;99.90
21318;DHT22;10818;50.830;6.524;2023-05-07T19:28:08;18.00;99.90
21318;DHT22;10818;50.830;6.524;2023-05-07T19:33:09;17.90;99.90
21318;DHT22;10818;50.830;6.524;2023-05-07T19:38:10;17.90;99.90
21318;DHT22;10818;50.830;6.524;2023-05-07T19:43:10;17.90;99.90
21318;DHT22;10818;50.830;6.524;2023-05-07T19:48:11;17.90;99.90
21318;DHT22;10818;50.830;6.524;2023-05-07T19:53:12;17.90;99.90
21318;DHT22;10818;50.830;6.524;2023-05-07T19:58:12;17.80;99.90
21318;DHT22;10818;50.830;6.524;2023-05-07T20:03:15;17.80;99.90
21318;DHT22;10818;50.830;6.524;2023-05-07T20:08:17;17.80;99.90
21318;DHT22;10818;50.830;6.524;2023-05-07T20:13:18;17.70;99.90
21318;DHT22;10818;50.830;6.524;2023-05-07T20:18:18;17.60;99.90
21318;DHT22;10818;50.830;6.524;2023-05-07T20:23:19;17.50;99.90
21318;DHT22;10818;50.830;6.524;2023-05-07T20:28:19;17.40;99.90
21318;DHT22;10818;50.830;6.524;2023-05-07T20:33:20;17.40;99.90
21318;DHT22;10818;50.830;6.524;2023-05-07T20:38:20;17.50;99.90
21318;DHT22;10818;50.830;6.524;2023-05-07T20:43:21;17.50;99.90
21318;DHT22;10818;50.830;6.524;2023-05-07T20:48:21;17.50;99.90
21318;DHT22;10818;50.830;6.524;2023-05-07T20:53:22;17.50;99.90
21318;DHT22;10818;50.830;6.524;2023-05-07T20:58:22;17.40;99.90
21318;DHT22;10818;50.830;6.524;2023-05-07T21:03:26;17.40;99.90
21318;DHT22;10818;50.830;6.524;2023-05-07T21:08:26;17.40;99.90
21318;DHT22;10818;50.830;6.524;2023-05-07T21:13:26;17.40;99.90
21318;DHT22;10818;50.830;6.524;2023-05-07T21:18:27;17.40;99.90
21318;DHT22;10818;50.830;6.524;2023-05-07T21:23:30;17.30;99.90
21318;DHT22;10818;50.830;6.524;2023-05-07T21:28:30;17.30;99.90
21318;DHT22;10818;50.830;6.524;2023-05-07T21:33:30;17.30;99.90
21318;DHT22;10818;50.830;6.524;2023-05-07T21:38:31;17.20;99.90
21318;DHT22;10818;50.830;6.524;2023-05-07T21:43:31;17.10;99.90
21318;DHT22;10818;50.830;6.524;2023-05-07T21:48:32;17.00;99.90
21318;DHT22;10818;50.830;6.524;2023-05-07T21:53:33;17.00;99.90
21318;DHT22;10818;50.830;6.524;2023-05-07T21:58:33;16.90;99.90
21318;DHT22;10818;50.830;6.524;2023-05-07T22:03:34;16.70;99.90
21318;DHT22;10818;50.830;6.524;2023-05-07T22:08:34;16.60;99.90
21318;DHT22;10818;50.830;6.524;2023-05-07T22:13:35;16.50;99.90
21318;DHT22;10818;50.830;6.524;2023-05-07T22:18:35;16.50;99.90
21318;DHT22;10818;50.830;6.524;2023-05-07T22:23:35;16.40;99.90
21318;DHT22;10818;50.830;6.524;2023-05-07T22:28:36;16.40;99.90
21318;DHT22;10818;50.830;6.524;2023-05-07T22:33:36;16.40;99.90
21318;DHT22;10818;50.830;6.524;2023-05-07T22:38:37;16.40;99.90
21318;DHT22;10818;50.830;6.524;2023-05-07T22:43:37;16.40;99.90
21318;DHT22;10818;50.830;6.524;2023-05-07T22:48:38;16.40;99.90
21318;DHT22;10818;50.830;6.524;2023-05-07T22:53:39;16.40;99.90
21318;DHT22;10818;50.830;6.524;2023-05-07T22:58:39;16.30;99.90
21318;DHT22;10818;50.830;6.524;2023-05-07T23:03:40;16.20;99.90
21318;DHT22;10818;50.830;6.524;2023-05-07T23:08:40;16.20;99.90
21318;DHT22;10818;50.830;6.524;2023-05-07T23:13:41;16.10;99.90
21318;DHT22;10818;50.830;6.524;2023-05-07T23:18:41;16.20;99.90
21318;DHT22;10818;50.830;6.524;2023-05-07T23:23:42;16.10;99.90
21318;DHT22;10818;50.830;6.524;2023-05-07T23:28:42;16.00;99.90
21318;DHT22;10818;50.830;6.524;2023-05-07T23:33:43;16.00;99.90
21318;DHT22;10818;50.830;6.524;2023-05-07T23:38:43;16.00;99.90
21318;DHT22;10818;50.830;6.524;2023-05-07T23:43:44;16.00;99.90
21318;DHT22;10818;50.830;6.524;2023-05-07T23:48:44;16.00;99.90
21318;DHT22;10818;50.830;6.524;2023-05-07T23:53:45;16.00;99.90
21318;DHT22;10818;50.830;6.524;2023-05-07T23:58:45;16.00;99.90
